Detall de PIREP

Printer-friendly versionPDF version

[2014/10/01 14:58:00]
Flight IATA:CT1027
Pilot Number:012
Company ICAO:CAT
Aircraft Type:B763/F
PAX:0
Departing Airport: KBFI
Destination Airport: KORD
Alternate Airport:KDTW
Online: VATSIM
Route:RADDY/M081F350 STEVS Q156 UFFDA/M081F370 Q156 ZZIPR
Flight Level:F370
No Slew and time accel
No pause
Crash detect
Detect pilot in Cockpit between each 30 and 45 minutes
14:58 Zero fuel Weight: 268546 Lbs, Fuel Weight: 57145 Lbs
14:58 VATSIM:KBFI 010755Z 00000KT 10SM FEW026 BKN036 OVC047 15/10 A3018 RMK AO2
14:58 VATSIM:KORD 010851Z 15005KT 10SM OVC022 12/08 A3000 RMK AO2 SLP159 T01220078 56003 $
14:58 BOEING TRANSPORT
14:59 Parking Brakes off
15:04 Take-off
15:04 Take off Weight: 324164 Lbs
15:04 Wind: 000º @ 000 Knots Heading: 330º
15:04 POS N47º 31´ 58´´ W122º 18´ 17´´
15:04 Gear Up: 179 Knots
15:04 Flaps:2 at 179 Knots
15:06 Flaps:1 at 221 Knots
15:06 Flaps:0 at 220 Knots
15:19 Wind:327º@075 Knots Heading: 072º Ground Speed: 488 Knots Altitude 34107 ft
15:34 Wind:328º@052 Knots Heading: 097º Ground Speed: 497 Knots Altitude 34881 ft
15:49 Wind:320º@026 Knots Heading: 090º Ground Speed: 485 Knots Altitude 34839 ft
16:04 Wind:292º@019 Knots Heading: 091º Ground Speed: 488 Knots Altitude 34757 ft
16:19 Wind:232º@020 Knots Heading: 096º Ground Speed: 488 Knots Altitude 34681 ft
16:34 Wind:219º@026 Knots Heading: 099º Ground Speed: 491 Knots Altitude 34576 ft
16:49 Wind:206º@030 Knots Heading: 108º Ground Speed: 484 Knots Altitude 34465 ft
17:04 Wind:210º@034 Knots Heading: 107º Ground Speed: 487 Knots Altitude 34455 ft
17:19 Wind:205º@056 Knots Heading: 113º Ground Speed: 487 Knots Altitude 34514 ft
17:34 Wind:199º@081 Knots Heading: 117º Ground Speed: 469 Knots Altitude 34596 ft
17:49 Wind:208º@068 Knots Heading: 124º Ground Speed: 466 Knots Altitude 34701 ft
18:04 Wind:219º@036 Knots Heading: 103º Ground Speed: 473 Knots Altitude 28054 ft
18:17 Flaps:1 at 244 Knots
18:18 Flaps:2 at 233 Knots
18:18 Gear Down: 228 Knots
18:18 Flaps:3 at 197 Knots
18:18 Flaps:4 at 194 Knots
18:18 Flaps:5 at 191 Knots
18:18 Flaps:6 at 186 Knots
18:18 Flaps:4 at 185 Knots
18:18 Flaps:6 at 183 Knots
18:18 Flaps:4 at 181 Knots
18:18 Flaps:6 at 181 Knots
18:18 Flaps:4 at 180 Knots
18:18 Flaps:6 at 178 Knots
18:18 Flaps:4 at 177 Knots
18:18 Flaps:6 at 173 Knots
18:18 Flaps:4 at 174 Knots
18:18 Flaps:6 at 174 Knots
18:18 Flaps:4 at 177 Knots
18:18 Flaps:6 at 179 Knots
18:19 Wind:170º@005 Knots Heading: 143º Ground Speed: 184 Knots Altitude 3057 ft
18:19 Flaps:4 at 180 Knots
18:19 Flaps:6 at 180 Knots
18:19 Flaps:4 at 180 Knots
18:19 Flaps:6 at 183 Knots
18:19 Flaps:4 at 184 Knots
18:19 Flaps:6 at 185 Knots
18:19 Flaps:4 at 184 Knots
18:19 Flaps:6 at 186 Knots
18:19 Flaps:4 at 187 Knots
18:19 Flaps:6 at 186 Knots
18:19 Flaps:4 at 186 Knots
18:19 Flaps:6 at 187 Knots
18:19 Flaps:4 at 187 Knots
18:19 Flaps:6 at 188 Knots
18:19 Flaps:4 at 188 Knots
18:19 Flaps:6 at 188 Knots
18:19 Flaps:4 at 189 Knots
18:19 Flaps:6 at 188 Knots
18:19 Flaps:5 at 186 Knots
18:19 Flaps:4 at 186 Knots
18:19 Flaps:6 at 185 Knots
18:19 Flaps:4 at 183 Knots
18:19 Flaps:6 at 177 Knots
18:19 Flaps:4 at 175 Knots
18:19 Flaps:6 at 173 Knots
18:19 Flaps:4 at 170 Knots
18:19 Flaps:6 at 168 Knots
18:20 TouchDown:Rate -292 ft/min Speed: 128 Knots
18:21 VATSIM:KORD 011151Z 14007KT 10SM FEW023 10/07 A3001 RMK AO2 SLP163 T01000072 10128 20094 53002 $
18:21 Land
18:21 Wind:167º@005 Knots
18:21 Heading: 142º
18:21 Flight Duration: 03:17
18:21 Landing Weight: 288111 Lbs
18:21 POS N41º 59´ 22´´ W087º 54´ 03´´
18:23 Parking brakes on
18:23 Block to Block Duration: 03:24
18:23 Final Fuel: 19325 Lbls
18:23 Spent Fuel: 37819 Lbls
18:23 Flight Length: 1521 NM
18:23 TOD Land Length: 1521 NM

Exportar CSV

Powered by Drupal - Modified by Danger4k